createdAt,value
2019-05-05T00:00:39.862Z,75.60
2019-05-05T00:02:04.513Z,75.60
2019-05-05T00:03:22.701Z,75.90
2019-05-05T00:04:45.494Z,76.50
2019-05-05T00:05:50.070Z,76.10
2019-05-05T00:06:54.923Z,76.20
2019-05-05T00:07:59.193Z,75.00
2019-05-05T00:09:05.498Z,75.10
2019-05-05T00:10:12.533Z,75.40
2019-05-05T00:11:35.141Z,75.70
2019-05-05T00:13:10.929Z,75.30
2019-05-05T00:14:24.613Z,76.10
2019-05-05T00:15:46.712Z,76.00
2019-05-05T00:16:59.491Z,76.00
2019-05-05T00:18:05.399Z,76.10
2019-05-05T00:19:09.871Z,76.30
2019-05-05T00:20:14.485Z,76.00
2019-05-05T00:21:18.873Z,76.60
2019-05-05T00:22:24.522Z,76.70
2019-05-05T00:23:28.957Z,76.70
2019-05-05T00:24:35.076Z,76.80
2019-05-05T00:25:39.237Z,76.70
2019-05-05T00:26:43.565Z,77.00
2019-05-05T00:27:47.831Z,77.50
2019-05-05T00:28:51.991Z,75.50
2019-05-05T00:29:56.223Z,75.40
2019-05-05T00:31:00.515Z,76.80
2019-05-05T00:32:05.000Z,76.00
2019-05-05T00:33:09.315Z,76.10
2019-05-05T00:34:15.410Z,76.50
2019-05-05T00:35:19.808Z,76.90
2019-05-05T00:36:24.578Z,76.60
2019-05-05T00:37:29.059Z,77.40
2019-05-05T00:38:35.045Z,76.50
2019-05-05T00:39:39.185Z,76.40
2019-05-05T00:40:44.327Z,76.00
2019-05-05T00:41:48.801Z,76.50
2019-05-05T00:42:54.738Z,77.00
2019-05-05T00:43:59.081Z,77.00
2019-05-05T00:45:04.898Z,77.40
2019-05-05T00:46:16.552Z,77.40
2019-05-05T00:47:38.806Z,77.30
2019-05-05T00:48:47.055Z,77.00
2019-05-05T00:49:52.327Z,77.60
2019-05-05T00:50:56.568Z,76.90
2019-05-05T00:52:01.332Z,76.50
2019-05-05T00:53:05.683Z,76.80
2019-05-05T00:54:10.021Z,77.20
2019-05-05T00:55:15.165Z,77.20
2019-05-05T00:56:19.651Z,77.70
2019-05-05T00:57:24.355Z,78.20
2019-05-05T00:58:30.033Z,78.20
2019-05-05T00:59:34.806Z,77.70
2019-05-05T01:00:46.827Z,77.40
2019-05-05T01:02:04.730Z,78.20
2019-05-05T01:03:09.537Z,78.10
2019-05-05T01:04:15.692Z,78.00
2019-05-05T01:05:34.424Z,78.30
2019-05-05T01:06:38.689Z,77.70
2019-05-05T01:07:44.399Z,77.40
2019-05-05T01:08:48.749Z,77.20
2019-05-05T01:09:54.273Z,76.90
2019-05-05T01:10:59.207Z,76.90
2019-05-05T01:12:04.403Z,77.10
2019-05-05T01:13:08.725Z,77.40
2019-05-05T01:14:14.442Z,77.80
2019-05-05T01:15:18.889Z,78.00
2019-05-05T01:16:24.750Z,78.60
2019-05-05T01:17:29.122Z,79.90
2019-05-05T01:18:35.204Z,79.30
2019-05-05T01:19:39.635Z,78.80
2019-05-05T01:20:44.839Z,78.60
2019-05-05T01:21:49.307Z,78.50
2019-05-05T01:22:55.318Z,78.20
2019-05-05T01:23:59.763Z,78.30
2019-05-05T01:25:05.391Z,77.90
2019-05-05T01:26:10.223Z,77.90
2019-05-05T01:27:14.822Z,78.70
2019-05-05T01:28:19.156Z,78.40
2019-05-05T01:29:25.135Z,78.30
2019-05-05T01:30:31.217Z,78.70
2019-05-05T01:31:35.339Z,79.00
2019-05-05T01:32:44.476Z,79.30
2019-05-05T01:34:15.105Z,78.70
2019-05-05T01:35:19.412Z,78.40
2019-05-05T01:36:24.193Z,78.30
2019-05-05T01:37:46.160Z,79.30
2019-05-05T01:38:59.910Z,79.30
2019-05-05T01:40:25.974Z,79.00
2019-05-05T01:41:39.820Z,79.60
2019-05-05T01:42:44.663Z,80.50
2019-05-05T01:43:49.049Z,79.70
2019-05-05T01:44:55.132Z,79.40
2019-05-05T01:45:59.393Z,79.40
2019-05-05T01:47:05.337Z,79.60
2019-05-05T01:48:09.851Z,80.00
2019-05-05T01:49:14.678Z,80.20
2019-05-05T01:50:21.379Z,80.10
2019-05-05T01:51:24.944Z,80.20
2019-05-05T01:52:29.217Z,80.90
2019-05-05T01:53:34.964Z,80.10
2019-05-05T01:54:39.559Z,80.70
2019-05-05T01:55:45.163Z,80.00
2019-05-05T01:56:52.301Z,80.40
2019-05-05T01:57:56.012Z,79.80
2019-05-05T01:59:00.447Z,79.80
2019-05-05T02:00:05.377Z,80.10
2019-05-05T02:01:09.959Z,79.50
2019-05-05T02:02:14.733Z,79.50
2019-05-05T02:03:19.472Z,79.30
2019-05-05T02:04:25.033Z,79.80
2019-05-05T02:05:29.861Z,80.70
2019-05-05T02:06:34.997Z,80.10
2019-05-05T02:07:39.549Z,80.10
2019-05-05T02:08:45.457Z,80.00
2019-05-05T02:09:49.935Z,80.10
2019-05-05T02:10:54.786Z,80.20
2019-05-05T02:11:59.312Z,80.80
2019-05-05T02:13:04.680Z,80.50
2019-05-05T02:14:09.418Z,80.70
2019-05-05T02:15:15.057Z,80.10
2019-05-05T02:16:19.456Z,79.90
2019-05-05T02:17:24.670Z,79.80
2019-05-05T02:18:29.255Z,80.70
2019-05-05T02:19:35.016Z,80.20
2019-05-05T02:20:45.673Z,80.30
2019-05-05T02:21:50.155Z,80.10
2019-05-05T02:22:55.222Z,80.40
2019-05-05T02:23:59.673Z,80.00
2019-05-05T02:25:04.312Z,79.20
2019-05-05T02:26:09.429Z,79.70
2019-05-05T02:27:14.585Z,80.10
2019-05-05T02:28:19.065Z,80.30
2019-05-05T02:29:32.253Z,79.90
2019-05-05T02:30:49.567Z,80.40
2019-05-05T02:32:11.456Z,80.40
2019-05-05T02:33:15.956Z,79.00
2019-05-05T02:34:20.206Z,79.30
2019-05-05T02:35:25.768Z,79.40
2019-05-05T02:36:30.487Z,79.60
2019-05-05T02:37:35.769Z,79.00
2019-05-05T02:38:40.362Z,78.80
2019-05-05T02:39:56.193Z,79.60
2019-05-05T02:40:51.164Z,79.60
2019-05-05T02:41:57.281Z,79.50
2019-05-05T02:43:01.628Z,80.20
2019-05-05T02:44:06.106Z,79.40
2019-05-05T02:45:15.481Z,79.70
2019-05-05T02:48:09.367Z,80.00
2019-05-05T02:49:15.262Z,79.40
2019-05-05T02:50:20.014Z,79.70
2019-05-05T02:51:45.613Z,79.60
2019-05-05T02:52:50.767Z,79.80
2019-05-05T02:53:56.315Z,79.20
2019-05-05T02:55:01.538Z,79.70
2019-05-05T02:56:10.896Z,79.40
2019-05-05T02:57:16.364Z,79.00
2019-05-05T02:58:21.764Z,78.70
2019-05-05T02:59:35.305Z,78.70
2019-05-05T03:01:01.469Z,79.10
2019-05-05T03:02:14.599Z,79.20
2019-05-05T03:03:18.976Z,79.00
2019-05-05T03:04:24.471Z,79.20
2019-05-05T03:05:29.821Z,78.70
2019-05-05T03:06:34.534Z,78.30
2019-05-05T03:07:39.183Z,78.20
2019-05-05T03:08:44.054Z,78.10
2019-05-05T03:09:50.039Z,78.30
2019-05-05T03:10:54.694Z,78.20
2019-05-05T03:12:01.957Z,78.00
2019-05-05T03:13:06.832Z,77.80
2019-05-05T03:14:14.307Z,78.30
2019-05-05T03:15:28.787Z,79.30
2019-05-05T03:16:37.368Z,78.20
2019-05-05T03:17:42.077Z,78.40
2019-05-05T03:18:46.879Z,78.50
2019-05-05T03:19:53.565Z,77.40
2019-05-05T03:21:04.521Z,77.80
2019-05-05T03:22:04.599Z,78.30
2019-05-05T03:23:08.917Z,77.80
2019-05-05T03:24:14.342Z,78.00
2019-05-05T03:25:19.395Z,77.90
2019-05-05T03:26:24.098Z,78.00
2019-05-05T03:27:29.032Z,78.50
2019-05-05T03:28:54.421Z,78.30
2019-05-05T03:29:59.704Z,78.60
2019-05-05T03:31:05.097Z,79.10
2019-05-05T03:32:11.689Z,79.20
2019-05-05T03:33:16.535Z,78.90
2019-05-05T03:34:23.842Z,79.20
2019-05-05T03:35:28.621Z,78.50
2019-05-05T03:36:33.979Z,78.00
2019-05-05T03:37:38.860Z,78.30
2019-05-05T03:38:44.490Z,78.70
2019-05-05T03:39:55.171Z,78.60
2019-05-05T03:41:28.318Z,78.90
2019-05-05T03:43:01.111Z,78.60
2019-05-05T03:44:10.522Z,78.20
2019-05-05T03:45:23.433Z,78.30
2019-05-05T03:46:28.097Z,78.20
2019-05-05T03:47:33.696Z,78.70
2019-05-05T03:48:38.523Z,78.50
2019-05-05T03:49:44.218Z,78.90
2019-05-05T03:50:48.617Z,78.60
2019-05-05T03:51:54.358Z,78.30
2019-05-05T03:52:58.881Z,78.00
2019-05-05T03:54:04.349Z,78.00
2019-05-05T03:55:09.150Z,78.30
2019-05-05T03:56:14.060Z,78.10
2019-05-05T03:57:19.336Z,78.20
2019-05-05T03:58:24.115Z,78.20
2019-05-05T03:59:28.431Z,78.90
2019-05-05T04:01:08.057Z,79.30
2019-05-05T04:02:34.231Z,78.90
2019-05-05T04:03:38.631Z,78.10
2019-05-05T04:04:46.300Z,78.40
2019-05-05T04:05:54.787Z,78.10
2019-05-05T04:06:59.577Z,78.00
2019-05-05T04:08:04.021Z,78.00
2019-05-05T04:09:09.293Z,79.00
2019-05-05T04:10:14.089Z,78.70
2019-05-05T04:11:18.943Z,79.10
2019-05-05T04:12:24.221Z,78.50
2019-05-05T04:13:29.495Z,78.30
2019-05-05T04:14:34.863Z,78.20
2019-05-05T04:15:40.861Z,77.80
2019-05-05T04:16:54.034Z,77.90
2019-05-05T04:18:03.997Z,77.30
2019-05-05T04:19:08.903Z,77.60
2019-05-05T04:20:34.109Z,78.20
2019-05-05T04:21:38.365Z,78.20
2019-05-05T04:22:43.528Z,78.00
2019-05-05T04:23:47.949Z,78.00
2019-05-05T04:25:13.806Z,78.20
2019-05-05T04:26:17.733Z,78.20
2019-05-05T04:27:23.864Z,78.40
2019-05-05T04:28:27.984Z,78.30
2019-05-05T04:29:34.306Z,78.80
2019-05-05T04:30:38.518Z,78.50
2019-05-05T04:31:43.511Z,77.40
2019-05-05T04:32:47.930Z,77.60
2019-05-05T04:33:53.828Z,77.70
2019-05-05T04:34:58.169Z,78.00
2019-05-05T04:36:03.873Z,77.70
2019-05-05T04:37:08.191Z,78.00
2019-05-05T04:38:13.901Z,78.20
2019-05-05T04:39:18.324Z,77.00
2019-05-05T04:40:24.076Z,77.10
2019-05-05T04:41:28.697Z,77.20
2019-05-05T04:42:33.711Z,77.60
2019-05-05T04:43:38.091Z,78.20
2019-05-05T04:44:44.622Z,78.00
2019-05-05T04:45:48.315Z,77.70
2019-05-05T04:46:55.761Z,77.90
2019-05-05T04:48:13.782Z,77.70
2019-05-05T04:49:30.316Z,77.70
2019-05-05T04:50:44.168Z,77.80
2019-05-05T04:53:01.288Z,77.60
2019-05-05T04:54:33.558Z,78.00
2019-05-05T04:55:37.789Z,77.80
2019-05-05T04:56:41.994Z,77.70
2019-05-05T04:57:46.337Z,77.20
2019-05-05T04:58:50.743Z,77.30
2019-05-05T04:59:55.088Z,77.70
2019-05-05T05:00:59.290Z,78.20
2019-05-05T05:02:08.229Z,77.60
2019-05-05T05:03:31.497Z,77.70
2019-05-05T05:04:45.512Z,78.10
2019-05-05T05:05:58.601Z,79.10
2019-05-05T05:07:04.643Z,78.40
2019-05-05T05:08:09.063Z,78.40
2019-05-05T05:09:14.621Z,78.20
2019-05-05T05:10:19.104Z,78.10
2019-05-05T05:11:24.625Z,77.50
2019-05-05T05:12:29.485Z,77.50
2019-05-05T05:13:34.737Z,76.80
2019-05-05T05:14:39.074Z,76.60
2019-05-05T05:15:44.634Z,77.10
2019-05-05T05:16:49.905Z,77.50
2019-05-05T05:18:00.972Z,77.70
2019-05-05T05:19:05.305Z,77.90
2019-05-05T05:20:09.751Z,77.40
2019-05-05T05:21:14.689Z,78.10
2019-05-05T05:22:19.233Z,78.00
2019-05-05T05:23:24.637Z,77.40
2019-05-05T05:24:29.045Z,77.80
2019-05-05T05:25:34.659Z,77.90
2019-05-05T05:26:39.036Z,78.20
2019-05-05T05:27:44.290Z,77.30
2019-05-05T05:28:48.913Z,77.50
2019-05-05T05:29:54.373Z,78.20
2019-05-05T05:30:58.813Z,78.20
2019-05-05T05:32:04.190Z,79.00
2019-05-05T05:33:08.639Z,79.10
2019-05-05T05:34:14.768Z,78.30
2019-05-05T05:35:18.848Z,78.20
2019-05-05T05:36:24.806Z,77.80
2019-05-05T05:37:29.210Z,78.00
2019-05-05T05:38:34.693Z,77.90
2019-05-05T05:39:48.661Z,78.00
2019-05-05T05:40:57.797Z,78.40
2019-05-05T05:42:02.098Z,79.40
2019-05-05T05:43:11.107Z,78.60
2019-05-05T05:44:22.004Z,77.90
2019-05-05T05:45:35.749Z,77.70
2019-05-05T05:46:57.020Z,77.70
2019-05-05T05:48:20.247Z,77.80
2019-05-05T05:49:34.714Z,78.20
2019-05-05T05:50:46.003Z,78.40
2019-05-05T05:51:50.160Z,77.90
2019-05-05T05:52:54.396Z,78.20
2019-05-05T05:53:58.534Z,78.70
2019-05-05T05:55:04.104Z,78.80
2019-05-05T05:56:08.482Z,79.20
2019-05-05T05:57:13.630Z,79.50
2019-05-05T05:58:18.314Z,79.20
2019-05-05T05:59:24.547Z,79.00
2019-05-05T06:00:28.556Z,78.00
2019-05-05T06:01:34.561Z,77.60
2019-05-05T06:02:38.952Z,77.80
2019-05-05T06:03:44.378Z,78.10
2019-05-05T06:04:48.872Z,78.40
2019-05-05T06:05:54.036Z,79.10
2019-05-05T06:06:58.646Z,77.40
2019-05-05T06:08:04.778Z,76.90
2019-05-05T06:09:08.990Z,76.50
2019-05-05T06:10:22.239Z,76.20
2019-05-05T06:11:20.265Z,75.70
2019-05-05T06:12:24.682Z,75.70
2019-05-05T06:13:29.007Z,76.70
2019-05-05T06:14:34.080Z,76.90
2019-05-05T06:15:38.741Z,77.50
2019-05-05T06:16:44.684Z,78.10
2019-05-05T06:17:49.017Z,77.80
2019-05-05T06:18:54.262Z,77.80
2019-05-05T06:19:58.795Z,77.10
2019-05-05T06:21:04.472Z,77.70
2019-05-05T06:22:09.165Z,77.40
2019-05-05T06:23:14.691Z,77.10
2019-05-05T06:24:19.005Z,76.40
2019-05-05T06:25:26.585Z,76.30
2019-05-05T06:26:29.758Z,76.70
2019-05-05T06:27:34.347Z,77.40
2019-05-05T06:28:38.683Z,77.10
2019-05-05T06:29:43.879Z,76.40
2019-05-05T06:30:48.403Z,76.80
2019-05-05T06:31:53.781Z,76.90
2019-05-05T06:32:58.140Z,76.50
2019-05-05T06:34:03.707Z,77.00
2019-05-05T06:35:10.863Z,77.40
2019-05-05T06:36:15.153Z,75.90
2019-05-05T06:37:19.399Z,74.80
2019-05-05T06:38:24.263Z,74.90
2019-05-05T06:39:28.816Z,74.90
2019-05-05T06:40:46.932Z,75.60
2019-05-05T06:42:06.686Z,75.50
2019-05-05T06:43:34.666Z,74.80
2019-05-05T06:44:45.441Z,74.90
2019-05-05T06:45:53.739Z,74.40
2019-05-05T06:47:04.653Z,74.00
2019-05-05T06:48:09.209Z,74.10
2019-05-05T06:49:13.734Z,74.80
2019-05-05T06:50:18.289Z,74.10
2019-05-05T06:51:24.378Z,73.50
2019-05-05T06:52:41.336Z,74.10
2019-05-05T06:53:34.791Z,74.90
2019-05-05T06:54:39.069Z,74.70
2019-05-05T06:55:44.442Z,73.70
2019-05-05T06:56:48.815Z,74.00
2019-05-05T06:57:53.928Z,74.50
2019-05-05T06:58:58.251Z,75.20
2019-05-05T07:00:03.672Z,75.90
2019-05-05T07:01:08.023Z,76.20
2019-05-05T07:02:14.359Z,75.70
2019-05-05T07:03:18.359Z,75.30
2019-05-05T07:04:24.382Z,75.20
2019-05-05T07:05:28.488Z,74.60
2019-05-05T07:06:34.336Z,74.70
2019-05-05T07:07:38.769Z,73.20
2019-05-05T07:08:43.882Z,73.00
2019-05-05T07:09:48.361Z,73.80
2019-05-05T07:10:54.661Z,74.50
2019-05-05T07:11:58.381Z,73.30
2019-05-05T07:13:04.827Z,72.60
2019-05-05T07:14:08.724Z,72.80
2019-05-05T07:15:14.534Z,72.90
2019-05-05T07:16:18.977Z,73.10
2019-05-05T07:17:24.525Z,72.20
2019-05-05T07:18:28.888Z,72.20
2019-05-05T07:19:34.427Z,73.10
2019-05-05T07:20:38.917Z,75.20
2019-05-05T07:21:43.640Z,73.90
2019-05-05T07:22:58.867Z,72.90
2019-05-05T07:23:54.084Z,73.00
2019-05-05T07:24:58.651Z,73.80
2019-05-05T07:26:04.151Z,74.00
2019-05-05T07:27:08.619Z,74.40
2019-05-05T07:28:14.692Z,74.00
2019-05-05T07:29:18.888Z,75.00
2019-05-05T07:30:24.281Z,73.60
2019-05-05T07:31:28.675Z,73.30
2019-05-05T07:32:33.842Z,72.70
2019-05-05T07:33:38.219Z,72.50
2019-05-05T07:35:04.409Z,71.30
2019-05-05T07:36:26.603Z,70.30
2019-05-05T07:37:30.841Z,70.70
2019-05-05T07:38:35.170Z,73.10
2019-05-05T07:39:39.350Z,72.80
2019-05-05T07:40:43.975Z,72.20
2019-05-05T07:41:48.367Z,70.60
2019-05-05T07:42:54.025Z,70.80
2019-05-05T07:43:58.355Z,72.10
2019-05-05T07:45:05.439Z,73.00
2019-05-05T07:46:08.787Z,72.40
2019-05-05T07:47:14.591Z,73.00
2019-05-05T07:48:18.923Z,71.60
2019-05-05T07:49:24.341Z,70.20
2019-05-05T07:50:32.471Z,69.50
2019-05-05T07:51:34.827Z,70.50
2019-05-05T07:52:38.940Z,69.70
2019-05-05T07:53:44.287Z,69.70
2019-05-05T07:54:48.794Z,71.00
2019-05-05T07:55:54.186Z,70.70
2019-05-05T07:56:58.557Z,69.70
2019-05-05T07:58:04.341Z,69.80
2019-05-05T07:59:08.786Z,70.20
2019-05-05T08:00:14.775Z,70.00
2019-05-05T08:01:19.227Z,68.80
2019-05-05T08:02:23.744Z,67.50
2019-05-05T08:03:28.112Z,67.50
2019-05-05T08:04:34.475Z,69.10
2019-05-05T08:05:38.438Z,70.10
2019-05-05T08:06:44.568Z,71.10
2019-05-05T08:07:48.575Z,71.10
2019-05-05T08:08:54.573Z,69.00
2019-05-05T08:09:59.039Z,68.00
2019-05-05T08:11:04.828Z,67.80
2019-05-05T08:12:09.219Z,67.90
2019-05-05T08:13:14.120Z,68.70
2019-05-05T08:14:18.625Z,70.10
2019-05-05T08:15:23.811Z,69.70
2019-05-05T08:16:38.697Z,70.20
2019-05-05T08:18:04.737Z,70.30
2019-05-05T08:19:26.645Z,70.00
2019-05-05T08:20:33.869Z,70.00
2019-05-05T08:21:38.387Z,68.30
2019-05-05T08:22:44.337Z,67.80
2019-05-05T08:24:13.955Z,67.50
2019-05-05T08:25:40.218Z,67.20
2019-05-05T08:26:56.832Z,69.60
2019-05-05T08:28:25.960Z,68.50
2019-05-05T08:29:54.269Z,68.40
2019-05-05T08:31:06.813Z,68.30
2019-05-05T08:32:35.026Z,68.70
2019-05-05T08:33:37.861Z,70.00
2019-05-05T08:34:56.599Z,70.90
2019-05-05T08:35:48.594Z,70.50
2019-05-05T08:36:53.785Z,70.10
2019-05-05T08:37:58.349Z,70.00
2019-05-05T08:39:03.723Z,69.10
2019-05-05T08:40:08.123Z,68.20
2019-05-05T08:41:13.847Z,69.00
2019-05-05T08:42:18.180Z,69.10
2019-05-05T08:43:24.168Z,67.20
2019-05-05T08:44:28.677Z,67.40
2019-05-05T08:45:34.920Z,66.70
2019-05-05T08:46:38.991Z,67.20
2019-05-05T08:47:43.660Z,67.80
2019-05-05T08:48:48.073Z,67.90
2019-05-05T08:49:53.715Z,66.10
2019-05-05T08:50:58.107Z,66.10
2019-05-05T08:52:04.008Z,67.30
2019-05-05T08:53:08.634Z,68.10
2019-05-05T08:54:14.316Z,68.00
2019-05-05T08:55:18.762Z,68.80
2019-05-05T08:56:23.778Z,68.60
2019-05-05T08:57:28.122Z,66.70
2019-05-05T08:58:34.298Z,66.80
2019-05-05T08:59:38.329Z,66.50
2019-05-05T09:00:44.408Z,66.70
2019-05-05T09:01:48.537Z,67.40
2019-05-05T09:02:54.301Z,65.20
2019-05-05T09:03:58.779Z,66.80
2019-05-05T09:05:04.273Z,67.40
2019-05-05T09:06:08.791Z,66.70
2019-05-05T09:07:13.753Z,66.40
2019-05-05T09:08:18.119Z,67.10
2019-05-05T09:09:24.173Z,69.60
2019-05-05T09:10:28.739Z,70.40
2019-05-05T09:11:34.279Z,69.60
2019-05-05T09:12:38.602Z,68.10
2019-05-05T09:13:44.665Z,66.80
2019-05-05T09:14:48.691Z,66.10
2019-05-05T09:15:54.384Z,66.50
2019-05-05T09:16:58.799Z,66.90
2019-05-05T09:18:04.824Z,67.50
2019-05-05T09:19:14.522Z,68.40
2019-05-05T09:20:18.709Z,68.10
2019-05-05T09:21:23.988Z,68.40
2019-05-05T09:22:28.449Z,69.20
2019-05-05T09:23:34.741Z,71.50
2019-05-05T09:24:53.679Z,73.10
2019-05-05T09:26:09.068Z,73.20
2019-05-05T09:27:28.423Z,72.80
2019-05-05T09:28:53.835Z,72.10
2019-05-05T09:29:58.021Z,71.20
2019-05-05T09:31:04.188Z,72.20
2019-05-05T09:32:08.243Z,72.70
2019-05-05T09:33:14.214Z,72.60
2019-05-05T09:34:18.703Z,72.30
2019-05-05T09:35:24.013Z,72.00
2019-05-05T09:36:28.458Z,73.10
2019-05-05T09:37:33.989Z,74.00
2019-05-05T09:38:38.377Z,74.30
2019-05-05T09:39:43.693Z,72.80
2019-05-05T09:40:48.037Z,71.10
2019-05-05T09:41:53.627Z,71.50
2019-05-05T09:42:57.983Z,70.40
2019-05-05T09:44:04.244Z,69.70
2019-05-05T09:45:09.973Z,70.90
2019-05-05T09:46:14.481Z,70.70
2019-05-05T09:47:18.797Z,69.10
2019-05-05T09:48:24.287Z,67.00
2019-05-05T09:49:28.725Z,67.00
2019-05-05T09:50:34.177Z,67.00
2019-05-05T09:51:38.459Z,68.50
2019-05-05T09:52:44.344Z,68.60
2019-05-05T09:53:48.730Z,67.40
2019-05-05T09:54:54.472Z,67.50
2019-05-05T09:55:58.812Z,67.80
2019-05-05T09:57:04.448Z,68.20
2019-05-05T09:58:09.057Z,68.10
2019-05-05T09:59:13.592Z,67.60
2019-05-05T10:00:18.332Z,67.60
2019-05-05T10:01:24.516Z,68.40
2019-05-05T10:02:28.684Z,67.40
2019-05-05T10:03:34.076Z,67.00
2019-05-05T10:04:38.510Z,67.00
2019-05-05T10:05:42.734Z,66.30
2019-05-05T10:06:47.918Z,67.00
2019-05-05T10:07:54.371Z,65.40
2019-05-05T10:08:58.298Z,65.30
2019-05-05T10:10:04.620Z,65.20
2019-05-05T10:11:09.103Z,66.40
2019-05-05T10:12:13.404Z,66.30
2019-05-05T10:13:17.798Z,66.10
2019-05-05T10:14:22.159Z,65.80
2019-05-05T10:15:26.833Z,66.20
2019-05-05T10:16:30.994Z,66.20
2019-05-05T10:17:35.183Z,67.60
2019-05-05T10:18:39.437Z,68.20
2019-05-05T10:19:43.990Z,68.70
2019-05-05T10:20:48.464Z,68.00
2019-05-05T10:21:52.683Z,66.90
2019-05-05T10:22:56.915Z,64.70
2019-05-05T10:24:04.558Z,65.80
2019-05-05T10:25:27.467Z,64.50
2019-05-05T10:26:32.073Z,65.80
2019-05-05T10:27:44.992Z,66.30
2019-05-05T10:28:44.365Z,65.60
2019-05-05T10:29:48.391Z,64.40
2019-05-05T10:30:53.878Z,64.20
2019-05-05T10:31:58.089Z,64.40
2019-05-05T10:33:03.760Z,64.80
2019-05-05T10:34:10.037Z,65.10
2019-05-05T10:35:14.421Z,63.70
2019-05-05T10:36:18.657Z,64.00
2019-05-05T10:37:23.543Z,63.50
2019-05-05T10:38:27.961Z,63.30
2019-05-05T10:39:44.011Z,63.20
2019-05-05T10:40:48.481Z,63.90
2019-05-05T10:41:54.672Z,64.20
2019-05-05T10:42:58.676Z,65.10
2019-05-05T10:44:03.644Z,64.40
2019-05-05T10:45:08.232Z,64.60
2019-05-05T10:46:14.306Z,65.40
2019-05-05T10:47:18.335Z,65.90
2019-05-05T10:48:23.562Z,66.20
2019-05-05T10:49:27.931Z,66.20
2019-05-05T10:50:34.138Z,66.50
2019-05-05T10:51:38.079Z,67.10
2019-05-05T10:52:44.171Z,68.20
2019-05-05T10:53:48.191Z,69.00
2019-05-05T10:54:54.692Z,69.60
2019-05-05T10:55:58.374Z,69.30
2019-05-05T10:57:03.985Z,68.50
2019-05-05T10:58:08.612Z,67.90
2019-05-05T10:59:12.765Z,67.40
2019-05-05T11:00:19.345Z,67.70
2019-05-05T11:01:23.674Z,67.60
2019-05-05T11:02:28.055Z,67.70
2019-05-05T11:03:34.155Z,68.50
2019-05-05T11:04:38.397Z,68.50
2019-05-05T11:05:44.559Z,69.00
2019-05-05T11:06:48.619Z,69.10
2019-05-05T11:07:53.749Z,70.30
2019-05-05T11:08:58.147Z,71.20
2019-05-05T11:10:03.564Z,71.50
2019-05-05T11:11:07.837Z,71.90
2019-05-05T11:12:13.726Z,72.40
2019-05-05T11:13:17.887Z,73.60
2019-05-05T11:14:22.127Z,76.00
2019-05-05T11:15:26.325Z,74.00
2019-05-05T11:16:30.705Z,76.70
2019-05-05T11:17:34.883Z,76.90
2019-05-05T11:18:39.023Z,76.90
2019-05-05T11:19:44.121Z,77.80
2019-05-05T11:20:48.623Z,76.00
2019-05-05T11:21:53.977Z,76.00
2019-05-05T11:22:58.479Z,76.00
2019-05-05T11:24:02.849Z,77.10
2019-05-05T11:25:07.141Z,76.40
2019-05-05T11:26:11.389Z,77.30
2019-05-05T11:27:15.522Z,76.20
2019-05-05T11:28:19.674Z,75.40
2019-05-05T11:29:24.165Z,72.30
2019-05-05T11:30:43.631Z,71.40
2019-05-05T11:31:47.838Z,71.30
2019-05-05T11:33:20.411Z,67.20
2019-05-05T11:34:31.054Z,66.20
2019-05-05T11:35:53.771Z,69.70
2019-05-05T11:37:05.121Z,70.30
2019-05-05T11:38:09.611Z,69.80
2019-05-05T11:39:14.755Z,68.10
2019-05-05T11:40:31.760Z,70.10
2019-05-05T11:41:35.896Z,66.90
2019-05-05T11:42:40.150Z,65.50
2019-05-05T11:43:44.487Z,65.60
2019-05-05T11:44:48.693Z,66.20
2019-05-05T11:45:54.387Z,63.80
2019-05-05T11:46:58.991Z,63.70
2019-05-05T11:48:03.219Z,63.50
2019-05-05T11:49:08.315Z,63.40
2019-05-05T11:50:12.751Z,63.20
2019-05-05T11:51:16.979Z,62.40
2019-05-05T11:52:21.220Z,63.10
2019-05-05T11:53:25.487Z,64.70
2019-05-05T11:54:29.992Z,65.30
2019-05-05T11:55:34.303Z,64.40
2019-05-05T11:56:38.564Z,63.80
2019-05-05T11:57:43.781Z,63.90
2019-05-05T11:58:48.360Z,64.40
2019-05-05T11:59:54.029Z,65.40
2019-05-05T12:00:58.375Z,65.60
2019-05-05T12:02:03.781Z,66.00
2019-05-05T12:03:08.207Z,65.50
2019-05-05T12:04:14.579Z,65.70
2019-05-05T12:05:19.061Z,66.60
2019-05-05T12:06:24.677Z,67.50
2019-05-05T12:07:28.923Z,67.10
2019-05-05T12:08:34.499Z,68.60
2019-05-05T12:09:47.384Z,69.70
2019-05-05T12:10:59.651Z,70.70
2019-05-05T12:12:03.965Z,71.10
2019-05-05T12:13:09.341Z,70.50
2019-05-05T12:14:15.189Z,71.50
2019-05-05T12:15:19.497Z,71.00
2019-05-05T12:16:30.713Z,72.00
2019-05-05T12:17:35.580Z,71.00
2019-05-05T12:18:39.736Z,72.60
2019-05-05T12:19:43.915Z,74.10
2019-05-05T12:20:48.176Z,74.70
2019-05-05T12:21:54.581Z,75.30
2019-05-05T12:22:58.473Z,73.90
2019-05-05T12:24:06.580Z,71.80
2019-05-05T12:25:28.954Z,70.80
2019-05-05T12:26:55.108Z,71.10
2019-05-05T12:28:06.871Z,72.20
2019-05-05T12:29:24.533Z,70.50
2019-05-05T12:30:29.044Z,68.40
2019-05-05T12:31:33.948Z,65.30
2019-05-05T12:32:38.381Z,65.40
2019-05-05T12:33:44.188Z,64.70
2019-05-05T12:34:48.635Z,63.20
2019-05-05T12:35:54.086Z,62.80
2019-05-05T12:36:58.255Z,61.10
2019-05-05T12:38:02.443Z,60.00
2019-05-05T12:39:09.564Z,60.20
2019-05-05T12:40:14.335Z,61.30
2019-05-05T12:41:20.968Z,62.00
2019-05-05T12:42:24.714Z,63.00
2019-05-05T12:43:28.990Z,63.40
2019-05-05T12:44:58.267Z,61.10
2019-05-05T12:46:27.612Z,60.30
2019-05-05T12:47:49.620Z,61.00
2019-05-05T12:48:54.847Z,62.00
2019-05-05T12:49:59.133Z,64.00
2019-05-05T12:51:04.223Z,64.80
2019-05-05T12:52:08.669Z,64.60
2019-05-05T12:53:14.519Z,62.10
2019-05-05T12:54:19.082Z,59.80
2019-05-05T12:55:32.287Z,58.50
2019-05-05T12:56:29.349Z,59.10
2019-05-05T12:57:34.267Z,58.90
2019-05-05T12:58:38.897Z,57.60
2019-05-05T12:59:44.423Z,59.20
2019-05-05T13:01:05.056Z,58.40
2019-05-05T13:02:09.397Z,59.20
2019-05-05T13:03:13.701Z,59.70
2019-05-05T13:04:17.951Z,59.50
2019-05-05T13:05:23.688Z,59.40
2019-05-05T13:06:27.978Z,58.90
2019-05-05T13:07:33.827Z,58.40
2019-05-05T13:08:38.324Z,57.60
2019-05-05T13:09:44.120Z,58.90
2019-05-05T13:10:48.483Z,59.20
2019-05-05T13:11:54.209Z,57.60
2019-05-05T13:12:58.685Z,58.50
2019-05-05T13:14:03.713Z,58.10
2019-05-05T13:15:08.839Z,59.30
2019-05-05T13:16:13.738Z,59.30
2019-05-05T13:17:18.215Z,59.60
2019-05-05T13:18:24.454Z,57.70
2019-05-05T13:19:34.701Z,58.10
2019-05-05T13:20:57.035Z,58.00
2019-05-05T13:22:33.794Z,57.00
2019-05-05T13:24:06.491Z,57.70
2019-05-05T13:25:55.265Z,58.70
2019-05-05T13:26:57.899Z,60.70
2019-05-05T13:28:03.998Z,58.40
2019-05-05T13:29:08.073Z,57.30
2019-05-05T13:30:13.143Z,56.20
2019-05-05T13:31:17.500Z,55.30
2019-05-05T13:32:21.743Z,56.00
2019-05-05T13:33:25.987Z,55.90
2019-05-05T13:34:30.209Z,54.40
2019-05-05T13:35:34.474Z,54.50
2019-05-05T13:36:38.707Z,53.70
2019-05-05T13:37:44.372Z,53.70
2019-05-05T13:38:51.867Z,53.10
2019-05-05T13:39:54.735Z,54.60
2019-05-05T13:40:59.003Z,55.00
2019-05-05T13:42:04.552Z,54.70
2019-05-05T13:43:09.135Z,54.10
2019-05-05T13:44:36.765Z,54.10
2019-05-05T13:45:57.164Z,54.50
2019-05-05T13:47:01.354Z,54.30
2019-05-05T13:48:05.561Z,55.40
2019-05-05T13:49:20.225Z,56.40
2019-05-05T13:50:30.238Z,55.60
2019-05-05T13:51:34.825Z,53.50
2019-05-05T13:52:39.006Z,54.30
2019-05-05T13:53:44.708Z,55.30
2019-05-05T13:54:49.113Z,55.30
2019-05-05T13:56:02.485Z,53.20
2019-05-05T13:56:59.399Z,53.00
2019-05-05T13:58:04.005Z,53.30
2019-05-05T13:59:08.475Z,54.00
2019-05-05T14:00:15.952Z,54.20
2019-05-05T14:01:20.202Z,54.60
2019-05-05T14:02:24.844Z,55.20
2019-05-05T14:03:29.033Z,54.70
2019-05-05T14:04:34.380Z,55.30
2019-05-05T14:05:38.926Z,55.60
2019-05-05T14:06:44.142Z,55.30
2019-05-05T14:07:49.261Z,55.20
2019-05-05T14:08:54.193Z,55.30
2019-05-05T14:09:59.065Z,55.40
2019-05-05T14:11:03.718Z,53.70
2019-05-05T14:12:08.085Z,53.50
2019-05-05T14:13:12.492Z,53.00
2019-05-05T14:14:16.845Z,53.20
2019-05-05T14:15:23.351Z,52.40
2019-05-05T14:16:27.340Z,51.40
2019-05-05T14:17:31.602Z,51.50
2019-05-05T14:18:35.895Z,51.00
2019-05-05T14:19:40.266Z,50.60
2019-05-05T14:20:44.503Z,50.80
2019-05-05T14:21:48.776Z,51.10
2019-05-05T14:22:54.343Z,51.40
2019-05-05T14:24:09.647Z,53.10
2019-05-05T14:25:18.213Z,53.40
2019-05-05T14:26:27.779Z,51.80